createdAt,value
2022-10-17T00:00:29.138Z,6.35
2022-10-17T00:01:32.198Z,5.35
2022-10-17T00:02:34.172Z,3.75
2022-10-17T00:03:38.643Z,6.97
2022-10-17T00:04:40.670Z,4.70
2022-10-17T00:05:45.358Z,4.95
2022-10-17T00:06:47.280Z,5.65
2022-10-17T00:07:50.185Z,3.28
2022-10-17T00:08:52.165Z,5.63
2022-10-17T00:09:56.641Z,4.55
2022-10-17T00:11:01.169Z,5.88
2022-10-17T00:12:04.111Z,3.92
2022-10-17T00:13:06.724Z,6.85
2022-10-17T00:14:09.648Z,10.30
2022-10-17T00:15:14.743Z,8.55
2022-10-17T00:16:25.267Z,8.50
2022-10-17T00:17:27.323Z,5.28
2022-10-17T00:18:30.353Z,5.25
2022-10-17T00:19:32.305Z,5.15
2022-10-17T00:20:36.745Z,11.15
2022-10-17T00:21:38.701Z,4.53
2022-10-17T00:22:41.609Z,8.57
2022-10-17T00:23:43.534Z,6.10
2022-10-17T00:24:46.480Z,5.93
2022-10-17T00:25:58.330Z,4.95
2022-10-17T00:27:01.253Z,6.10
2022-10-17T00:28:03.637Z,4.95
2022-10-17T00:29:06.650Z,9.20
2022-10-17T00:30:12.384Z,7.85
2022-10-17T00:31:19.645Z,3.78
2022-10-17T00:32:22.900Z,10.25
2022-10-17T00:33:25.863Z,7.53
2022-10-17T00:34:29.409Z,4.03
2022-10-17T00:35:32.903Z,15.75
2022-10-17T00:36:34.990Z,7.43
2022-10-17T00:37:37.981Z,10.98
2022-10-17T00:38:40.606Z,6.20
2022-10-17T00:39:43.514Z,6.82
2022-10-17T00:40:45.529Z,8.57
2022-10-17T00:41:49.808Z,9.07
2022-10-17T00:42:53.132Z,8.35
2022-10-17T00:43:59.090Z,3.05
2022-10-17T00:45:06.300Z,3.50
2022-10-17T00:46:09.709Z,5.00
2022-10-17T00:47:15.417Z,3.40
2022-10-17T00:48:22.513Z,3.45
2022-10-17T00:49:27.669Z,3.25
2022-10-17T00:50:30.896Z,3.40
2022-10-17T00:51:38.524Z,4.78
2022-10-17T00:52:42.109Z,8.07
2022-10-17T00:53:44.328Z,4.32
2022-10-17T00:54:50.988Z,3.30
2022-10-17T00:55:54.046Z,7.00
2022-10-17T00:56:58.901Z,6.35
2022-10-17T00:58:04.705Z,3.13
2022-10-17T00:59:09.636Z,3.10
2022-10-17T01:00:12.897Z,2.95
2022-10-17T01:01:16.007Z,4.10
2022-10-17T01:02:21.080Z,3.28
2022-10-17T01:03:24.581Z,4.60
2022-10-17T01:04:26.575Z,2.92
2022-10-17T01:05:30.041Z,3.35
2022-10-17T01:06:31.984Z,4.25
2022-10-17T01:07:37.222Z,6.53
2022-10-17T01:08:39.666Z,3.72
2022-10-17T01:09:44.372Z,8.60
2022-10-17T01:10:58.512Z,5.38
2022-10-17T01:12:08.826Z,8.82
2022-10-17T01:13:16.022Z,4.30
2022-10-17T01:14:26.108Z,5.72
2022-10-17T01:15:43.684Z,2.65
2022-10-17T01:16:53.114Z,3.42
2022-10-17T01:18:04.781Z,4.75
2022-10-17T01:19:28.484Z,3.40
2022-10-17T01:20:56.628Z,3.05
2022-10-17T01:22:04.168Z,5.05
2022-10-17T01:23:22.420Z,3.58
2022-10-17T01:24:51.126Z,2.97
2022-10-17T01:25:56.941Z,5.70
2022-10-17T01:27:27.283Z,7.43
2022-10-17T01:28:56.550Z,4.50
2022-10-17T01:30:12.691Z,6.30
2022-10-17T01:31:16.816Z,11.65
2022-10-17T01:32:24.018Z,3.88
2022-10-17T01:33:33.077Z,4.13
2022-10-17T01:34:45.561Z,6.80
2022-10-17T01:35:53.748Z,5.63
2022-10-17T01:37:02.413Z,3.40
2022-10-17T01:38:10.222Z,5.55
2022-10-17T01:39:18.106Z,5.00
2022-10-17T01:40:24.632Z,4.15
2022-10-17T01:41:36.650Z,3.65
2022-10-17T01:42:44.218Z,6.80
2022-10-17T01:43:54.219Z,4.55
2022-10-17T01:44:59.614Z,4.50
2022-10-17T01:46:06.516Z,4.70
2022-10-17T01:47:14.439Z,4.97
2022-10-17T01:48:21.490Z,7.25
2022-10-17T01:49:28.647Z,4.57
2022-10-17T01:50:34.349Z,8.07
2022-10-17T01:51:40.885Z,8.88
2022-10-17T01:52:47.922Z,4.25
2022-10-17T01:53:54.082Z,3.88
2022-10-17T01:55:00.654Z,7.25
2022-10-17T01:56:06.979Z,5.45
2022-10-17T01:57:16.549Z,6.65
2022-10-17T01:58:24.918Z,3.75
2022-10-17T01:59:34.774Z,5.05
2022-10-17T02:00:37.943Z,3.22
2022-10-17T02:01:44.476Z,2.85
2022-10-17T02:02:50.357Z,7.93
2022-10-17T02:03:54.609Z,4.68
2022-10-17T02:04:57.778Z,6.60
2022-10-17T02:06:00.934Z,4.47
2022-10-17T02:07:07.271Z,9.18
2022-10-17T02:08:10.465Z,3.60
2022-10-17T02:09:20.563Z,3.78
2022-10-17T02:10:32.631Z,4.57
2022-10-17T02:11:34.553Z,4.50
2022-10-17T02:12:49.327Z,4.20
2022-10-17T02:15:50.753Z,6.30
2022-10-17T02:17:03.492Z,7.38
2022-10-17T02:18:22.378Z,4.97
2022-10-17T02:19:45.209Z,4.18
2022-10-17T02:20:54.633Z,3.95
2022-10-17T02:22:09.934Z,3.35
2022-10-17T02:23:20.816Z,6.07
2022-10-17T02:24:32.393Z,9.07
2022-10-17T02:25:42.512Z,2.92
2022-10-17T02:26:50.355Z,7.25
2022-10-17T02:27:57.717Z,4.47
2022-10-17T02:29:06.722Z,5.68
2022-10-17T02:30:14.446Z,3.13
2022-10-17T02:31:21.514Z,5.07
2022-10-17T02:32:30.001Z,4.60
2022-10-17T02:33:38.106Z,5.68
2022-10-17T02:34:44.487Z,5.68
2022-10-17T02:35:52.212Z,3.58
2022-10-17T02:36:59.364Z,4.95
2022-10-17T02:38:05.002Z,3.58
2022-10-17T02:39:09.198Z,4.00
2022-10-17T02:40:14.261Z,6.30
2022-10-17T02:41:18.985Z,9.35
2022-10-17T02:42:24.461Z,3.10
2022-10-17T02:43:26.705Z,3.83
2022-10-17T02:44:31.543Z,4.05
2022-10-17T02:45:36.166Z,6.00
2022-10-17T02:46:42.154Z,3.03
2022-10-17T02:47:54.192Z,3.40
2022-10-17T02:49:02.840Z,7.82
2022-10-17T02:50:05.529Z,2.88
2022-10-17T02:51:18.069Z,3.50
2022-10-17T02:52:27.912Z,5.05
2022-10-17T02:53:37.075Z,3.67
2022-10-17T02:54:43.336Z,2.90
2022-10-17T02:55:52.334Z,4.72
2022-10-17T02:57:02.528Z,6.43
2022-10-17T02:58:09.118Z,6.45
2022-10-17T02:59:15.449Z,6.28
2022-10-17T03:00:20.622Z,3.63
2022-10-17T03:01:23.204Z,4.50
2022-10-17T03:02:26.924Z,7.68
2022-10-17T03:03:31.713Z,8.60
2022-10-17T03:04:36.024Z,9.38
2022-10-17T03:05:37.914Z,5.68
2022-10-17T03:06:41.691Z,8.55
2022-10-17T03:07:43.594Z,5.05
2022-10-17T03:08:46.502Z,3.03
2022-10-17T03:09:48.442Z,6.53
2022-10-17T03:10:52.110Z,8.77
2022-10-17T03:11:54.107Z,6.45
2022-10-17T03:12:56.998Z,8.82
2022-10-17T03:13:58.929Z,3.85
2022-10-17T03:15:01.841Z,4.75
2022-10-17T03:16:03.795Z,5.40
2022-10-17T03:17:06.725Z,5.80
2022-10-17T03:18:08.674Z,5.85
2022-10-17T03:19:11.576Z,3.20
2022-10-17T03:20:14.987Z,4.18
2022-10-17T03:21:17.930Z,8.85
2022-10-17T03:22:19.858Z,12.98
2022-10-17T03:23:22.775Z,3.00
2022-10-17T03:24:24.729Z,4.88
2022-10-17T03:25:27.694Z,4.70
2022-10-17T03:26:29.965Z,4.88
2022-10-17T03:27:33.113Z,3.45
2022-10-17T03:28:35.535Z,3.25
2022-10-17T03:29:38.581Z,5.38
2022-10-17T03:30:40.507Z,6.95
2022-10-17T03:31:43.637Z,3.38
2022-10-17T03:32:45.605Z,4.18
2022-10-17T03:33:48.542Z,6.00
2022-10-17T03:34:50.477Z,5.50
2022-10-17T03:35:54.742Z,5.45
2022-10-17T03:36:57.701Z,3.63
2022-10-17T03:37:59.618Z,4.47
2022-10-17T03:39:02.525Z,9.13
2022-10-17T03:40:05.202Z,3.20
2022-10-17T03:41:08.634Z,4.40
2022-10-17T03:42:10.587Z,4.22
2022-10-17T03:43:13.513Z,3.28
2022-10-17T03:44:15.789Z,6.13
2022-10-17T03:45:18.753Z,10.65
2022-10-17T03:46:20.737Z,4.05
2022-10-17T03:47:23.740Z,5.03
2022-10-17T03:48:26.505Z,4.15
2022-10-17T03:49:29.393Z,3.83
2022-10-17T03:50:31.382Z,3.63
2022-10-17T03:51:35.788Z,6.47
2022-10-17T03:52:37.750Z,4.90
2022-10-17T03:53:40.676Z,2.95
2022-10-17T03:54:42.630Z,7.68
2022-10-17T03:55:45.599Z,3.20
2022-10-17T03:56:47.571Z,3.25
2022-10-17T03:57:50.540Z,3.90
2022-10-17T03:58:52.638Z,3.67
2022-10-17T03:59:55.594Z,2.55
2022-10-17T04:00:57.564Z,2.85
2022-10-17T04:02:00.569Z,5.10
2022-10-17T04:03:02.513Z,3.42
2022-10-17T04:04:05.636Z,2.33
2022-10-17T04:05:09.482Z,9.27
2022-10-17T04:06:13.155Z,3.20
2022-10-17T04:07:17.578Z,5.70
2022-10-17T04:08:19.510Z,8.23
2022-10-17T04:09:22.410Z,6.57
2022-10-17T04:10:24.334Z,11.60
2022-10-17T04:11:27.293Z,5.28
2022-10-17T04:12:30.310Z,6.18
2022-10-17T04:13:33.375Z,4.80
2022-10-17T04:14:36.423Z,6.20
2022-10-17T04:15:38.330Z,11.68
2022-10-17T04:16:41.492Z,5.43
2022-10-17T04:17:44.385Z,6.40
2022-10-17T04:18:46.314Z,8.23
2022-10-17T04:19:50.510Z,7.22
2022-10-17T04:20:52.664Z,8.82
2022-10-17T04:21:55.787Z,6.35
2022-10-17T04:22:59.110Z,7.75
2022-10-17T04:24:02.141Z,11.30
2022-10-17T04:25:04.391Z,6.90
2022-10-17T04:26:08.094Z,7.00
2022-10-17T04:27:10.104Z,5.25
2022-10-17T04:28:13.631Z,5.22
2022-10-17T04:29:15.621Z,5.25
2022-10-17T04:30:18.647Z,6.20
2022-10-17T04:31:20.557Z,3.35
2022-10-17T04:32:23.656Z,4.97
2022-10-17T04:33:25.674Z,4.15
2022-10-17T04:34:28.583Z,8.93
2022-10-17T04:35:30.550Z,6.43
2022-10-17T04:36:33.513Z,6.93
2022-10-17T04:37:35.457Z,3.50
2022-10-17T04:38:39.968Z,3.33
2022-10-17T04:39:42.008Z,6.93
2022-10-17T04:40:44.892Z,4.50
2022-10-17T04:41:46.810Z,3.90
2022-10-17T04:42:50.001Z,4.70
2022-10-17T04:43:51.930Z,3.42
2022-10-17T04:44:54.905Z,3.58
2022-10-17T04:45:57.673Z,4.18
2022-10-17T04:47:00.614Z,7.30
2022-10-17T04:48:02.553Z,3.50
2022-10-17T04:49:05.480Z,4.00
2022-10-17T04:50:08.111Z,4.15
2022-10-17T04:51:14.433Z,6.10
2022-10-17T04:52:16.352Z,7.50
2022-10-17T04:53:19.435Z,3.30
2022-10-17T04:54:23.014Z,2.83
2022-10-17T04:55:26.040Z,8.63
2022-10-17T04:56:28.080Z,3.22
2022-10-17T04:57:31.013Z,5.15
2022-10-17T04:58:32.949Z,3.15
2022-10-17T04:59:35.888Z,2.97
2022-10-17T05:00:37.911Z,2.53
2022-10-17T05:01:40.858Z,4.82
2022-10-17T05:02:42.799Z,4.78
2022-10-17T05:03:46.463Z,4.03
2022-10-17T05:04:48.402Z,4.75
2022-10-17T05:05:51.557Z,3.45
2022-10-17T05:06:53.540Z,8.60
2022-10-17T05:07:56.512Z,8.95
2022-10-17T05:08:58.484Z,13.32
2022-10-17T05:10:02.770Z,4.65
2022-10-17T05:11:05.850Z,5.57
2022-10-17T05:12:10.388Z,6.00
2022-10-17T05:13:12.732Z,7.05
2022-10-17T05:14:16.730Z,5.25
2022-10-17T05:15:18.682Z,8.52
2022-10-17T05:16:22.018Z,4.18
2022-10-17T05:17:24.184Z,6.80
2022-10-17T05:18:27.269Z,7.70
2022-10-17T05:19:29.182Z,4.05
2022-10-17T05:20:32.966Z,6.20
2022-10-17T05:21:37.160Z,6.10
2022-10-17T05:22:42.152Z,5.18
2022-10-17T05:23:45.415Z,5.25
2022-10-17T05:24:47.349Z,6.88
2022-10-17T05:25:55.837Z,3.47
2022-10-17T05:26:58.789Z,3.42
2022-10-17T05:28:00.685Z,3.92
2022-10-17T05:29:04.270Z,3.70
2022-10-17T05:30:07.534Z,3.72
2022-10-17T05:31:12.618Z,4.55
2022-10-17T05:32:15.226Z,6.00
2022-10-17T05:33:18.145Z,4.07
2022-10-17T05:34:20.121Z,5.30
2022-10-17T05:35:23.351Z,6.88
2022-10-17T05:36:25.332Z,5.35
2022-10-17T05:37:30.574Z,5.00
2022-10-17T05:38:33.760Z,4.13
2022-10-17T05:39:35.665Z,3.33
2022-10-17T05:40:39.487Z,3.88
2022-10-17T05:41:43.830Z,3.20
2022-10-17T05:42:49.304Z,4.15
2022-10-17T05:43:52.218Z,3.92
2022-10-17T05:44:54.134Z,3.03
2022-10-17T05:45:57.298Z,3.78
2022-10-17T05:46:59.430Z,3.50
2022-10-17T05:48:02.332Z,3.90
2022-10-17T05:49:14.759Z,3.25
2022-10-17T05:50:24.034Z,4.57
2022-10-17T05:51:26.345Z,5.45
2022-10-17T05:52:29.481Z,4.45
2022-10-17T05:53:33.107Z,3.35
2022-10-17T05:54:36.281Z,6.70
2022-10-17T05:55:39.229Z,3.47
2022-10-17T05:56:42.538Z,3.33
2022-10-17T05:57:45.473Z,6.38
2022-10-17T05:58:50.795Z,3.17
2022-10-17T05:59:54.118Z,3.65
2022-10-17T06:00:59.857Z,6.00
2022-10-17T06:02:01.893Z,6.30
2022-10-17T06:03:05.288Z,3.70
2022-10-17T06:04:07.213Z,9.43
2022-10-17T06:05:10.421Z,4.13
2022-10-17T06:06:14.395Z,9.90
2022-10-17T06:07:17.856Z,6.13
2022-10-17T06:08:20.306Z,7.45
2022-10-17T06:09:23.506Z,7.88
2022-10-17T06:10:25.433Z,3.05
2022-10-17T06:11:28.449Z,6.18
2022-10-17T06:12:31.979Z,6.75
2022-10-17T06:13:35.079Z,12.38
2022-10-17T06:14:36.983Z,3.97
2022-10-17T06:15:39.955Z,4.60
2022-10-17T06:16:43.367Z,5.13
2022-10-17T06:17:46.283Z,3.58
2022-10-17T06:19:57.154Z,4.65
2022-10-17T06:21:04.379Z,5.25
2022-10-17T06:22:06.277Z,5.80
2022-10-17T06:23:09.186Z,5.38
2022-10-17T06:24:12.122Z,3.75
2022-10-17T06:25:14.866Z,3.88
2022-10-17T06:26:18.037Z,4.22
2022-10-17T06:27:20.197Z,4.72
2022-10-17T06:28:24.529Z,4.20
2022-10-17T06:29:26.470Z,4.25
2022-10-17T06:30:29.733Z,5.95
2022-10-17T06:31:31.659Z,7.65
2022-10-17T06:32:34.578Z,5.13
2022-10-17T06:33:36.704Z,6.20
2022-10-17T06:34:39.609Z,6.03
2022-10-17T06:35:41.581Z,6.95
2022-10-17T06:36:44.574Z,8.32
2022-10-17T06:37:46.674Z,6.72
2022-10-17T06:38:49.576Z,10.80
2022-10-17T06:39:54.010Z,4.32
2022-10-17T06:41:03.272Z,6.20
2022-10-17T06:42:05.366Z,9.15
2022-10-17T06:43:08.271Z,5.78
2022-10-17T06:44:11.919Z,8.02
2022-10-17T06:45:15.141Z,5.97
2022-10-17T06:46:18.610Z,5.68
2022-10-17T06:47:21.574Z,7.68
2022-10-17T06:48:23.489Z,6.05
2022-10-17T06:49:26.757Z,5.80
2022-10-17T06:50:28.722Z,10.10
2022-10-17T06:51:31.954Z,8.07
2022-10-17T06:52:34.201Z,6.80
2022-10-17T06:53:37.370Z,6.18
2022-10-17T06:54:39.286Z,8.90
2022-10-17T06:55:42.866Z,5.65
2022-10-17T06:56:44.778Z,5.35
2022-10-17T06:57:47.793Z,5.78
2022-10-17T06:58:51.286Z,8.38
2022-10-17T06:59:57.501Z,6.03
2022-10-17T07:01:00.966Z,8.32
2022-10-17T07:02:05.318Z,8.55
2022-10-17T07:03:07.243Z,6.10
2022-10-17T07:04:10.228Z,6.30
2022-10-17T07:05:12.403Z,9.02
2022-10-17T07:06:15.401Z,6.07
2022-10-17T07:07:18.558Z,8.38
2022-10-17T07:08:20.598Z,6.43
2022-10-17T07:09:24.270Z,5.25
2022-10-17T07:10:27.227Z,7.00
2022-10-17T07:11:30.202Z,6.00
2022-10-17T07:12:34.900Z,6.20
2022-10-17T07:13:39.096Z,5.65
2022-10-17T07:14:42.262Z,8.68
2022-10-17T07:15:46.000Z,6.53
2022-10-17T07:16:48.981Z,7.65
2022-10-17T07:17:50.915Z,7.40
2022-10-17T07:18:54.315Z,9.45
2022-10-17T07:19:57.485Z,6.20
2022-10-17T07:20:59.497Z,7.10
2022-10-17T07:22:02.436Z,6.35
2022-10-17T07:23:04.441Z,5.72
2022-10-17T07:24:07.547Z,4.50
2022-10-17T07:25:10.981Z,7.05
2022-10-17T07:26:15.596Z,6.53
2022-10-17T07:27:18.512Z,7.07
2022-10-17T07:28:20.438Z,5.68
2022-10-17T07:29:23.379Z,4.75
2022-10-17T07:30:25.421Z,7.43
2022-10-17T07:31:29.805Z,6.65
2022-10-17T07:32:31.733Z,7.03
2022-10-17T07:33:34.996Z,5.18
2022-10-17T07:34:38.593Z,7.47
2022-10-17T07:35:40.940Z,6.65
2022-10-17T07:36:43.898Z,5.55
2022-10-17T07:37:46.806Z,5.75
2022-10-17T07:38:49.713Z,5.75
2022-10-17T07:39:51.672Z,8.57
2022-10-17T07:40:57.486Z,8.30
2022-10-17T07:42:00.417Z,4.88
2022-10-17T07:43:02.417Z,5.95
2022-10-17T07:44:05.714Z,9.85
2022-10-17T07:45:13.574Z,4.97
2022-10-17T07:46:16.509Z,6.28
2022-10-17T07:47:20.071Z,6.82
2022-10-17T07:48:24.713Z,5.97
2022-10-17T07:49:27.704Z,4.20
2022-10-17T07:50:29.641Z,8.70
2022-10-17T07:51:32.652Z,7.95
2022-10-17T07:52:34.695Z,7.97
2022-10-17T07:53:38.130Z,6.10
2022-10-17T07:54:40.439Z,4.22
2022-10-17T07:55:44.805Z,9.13
2022-10-17T07:56:50.427Z,5.20
2022-10-17T07:57:53.533Z,6.75
2022-10-17T08:00:06.208Z,6.88
2022-10-17T08:01:14.844Z,11.02
2022-10-17T08:02:23.658Z,12.43
2022-10-17T08:03:26.561Z,16.10
2022-10-17T08:04:35.234Z,7.20
2022-10-17T08:05:37.183Z,8.68
2022-10-17T08:06:40.118Z,5.80
2022-10-17T08:07:42.123Z,4.25
2022-10-17T08:08:45.581Z,8.18
2022-10-17T08:09:48.059Z,7.47
2022-10-17T08:10:51.115Z,13.25
2022-10-17T08:11:54.038Z,9.52
2022-10-17T08:12:57.042Z,15.25
2022-10-17T08:13:59.965Z,9.20
2022-10-17T08:15:01.924Z,4.03
2022-10-17T08:16:08.141Z,15.20
2022-10-17T08:17:10.256Z,8.27
2022-10-17T08:18:14.826Z,9.95
2022-10-17T08:19:17.717Z,15.13
2022-10-17T08:20:19.633Z,9.88
2022-10-17T08:21:22.589Z,6.25
2022-10-17T08:22:25.569Z,5.50
2022-10-17T08:23:28.521Z,6.70
2022-10-17T08:24:30.428Z,4.38
2022-10-17T08:25:33.655Z,7.70
2022-10-17T08:26:40.633Z,9.68
2022-10-17T08:27:46.357Z,7.43
2022-10-17T08:28:49.008Z,6.78
2022-10-17T08:29:53.506Z,7.07
2022-10-17T08:31:03.251Z,15.57
2022-10-17T08:32:07.818Z,14.68
2022-10-17T08:33:13.072Z,15.77
2022-10-17T08:34:16.527Z,21.92
2022-10-17T08:35:19.599Z,18.58
2022-10-17T08:36:22.533Z,17.73
2022-10-17T08:37:24.521Z,14.45
2022-10-17T08:38:27.965Z,11.02
2022-10-17T08:39:29.950Z,8.82
2022-10-17T08:40:35.343Z,12.18
2022-10-17T08:42:04.241Z,6.88
2022-10-17T08:43:27.167Z,11.50
2022-10-17T08:44:39.722Z,11.00
2022-10-17T08:45:48.392Z,8.90
2022-10-17T08:46:57.000Z,10.20
2022-10-17T08:48:01.202Z,12.68
2022-10-17T08:49:12.552Z,10.43
2022-10-17T08:50:23.781Z,11.75
2022-10-17T08:51:31.871Z,19.67
2022-10-17T08:52:40.637Z,13.73
2022-10-17T08:53:49.973Z,10.88
2022-10-17T08:54:52.223Z,11.10
2022-10-17T08:55:56.110Z,13.52
2022-10-17T08:56:58.085Z,9.57
2022-10-17T08:58:01.334Z,10.07
2022-10-17T08:59:05.512Z,15.32
2022-10-17T09:00:16.139Z,14.10
2022-10-17T09:01:33.549Z,16.95
2022-10-17T09:02:45.580Z,16.73
2022-10-17T09:04:03.204Z,12.00
2022-10-17T09:05:33.451Z,12.77
2022-10-17T09:06:40.052Z,15.70
2022-10-17T09:07:48.568Z,14.60
2022-10-17T09:09:04.158Z,13.50
2022-10-17T09:10:15.455Z,16.50
2022-10-17T09:11:32.421Z,11.48
2022-10-17T09:12:44.413Z,22.45
2022-10-17T09:14:02.119Z,14.65
2022-10-17T09:15:36.351Z,15.75
2022-10-17T09:17:11.435Z,22.23
2022-10-17T09:18:21.093Z,23.63
2022-10-17T09:19:29.761Z,25.23
2022-10-17T09:20:37.547Z,24.30
2022-10-17T09:21:46.129Z,22.75
2022-10-17T09:24:09.601Z,32.97
2022-10-17T09:25:20.678Z,27.30
2022-10-17T09:26:24.424Z,34.92
2022-10-17T09:27:32.747Z,31.75
2022-10-17T09:30:43.630Z,29.50
2022-10-17T09:31:52.012Z,27.58
2022-10-17T09:32:54.590Z,29.40
2022-10-17T09:34:01.480Z,35.20
2022-10-17T09:35:03.781Z,27.45
2022-10-17T09:36:14.870Z,31.98
2022-10-17T09:37:17.918Z,31.08
2022-10-17T09:38:22.642Z,28.60
2022-10-17T09:39:26.098Z,23.60
2022-10-17T09:40:35.654Z,21.15
2022-10-17T09:41:46.608Z,18.63
2022-10-17T09:42:52.066Z,27.45
2022-10-17T09:43:56.858Z,33.03
2022-10-17T09:45:18.537Z,21.83
2022-10-17T09:46:26.857Z,28.02
2022-10-17T09:47:33.245Z,19.10
2022-10-17T09:48:41.664Z,23.42
2022-10-17T09:49:45.042Z,22.20
2022-10-17T09:50:57.825Z,29.00
2022-10-17T09:52:17.377Z,25.33
2022-10-17T09:53:25.128Z,24.63
2022-10-17T09:54:33.415Z,23.58
2022-10-17T09:55:42.253Z,22.20
2022-10-17T09:56:59.081Z,29.50
2022-10-17T09:58:03.856Z,23.45
2022-10-17T09:59:09.281Z,28.25
2022-10-17T10:00:22.679Z,30.25
2022-10-17T10:01:28.410Z,38.45
2022-10-17T10:02:36.269Z,22.00
2022-10-17T10:03:39.016Z,28.83
2022-10-17T10:05:08.816Z,19.20
2022-10-17T10:06:15.840Z,29.17
2022-10-17T10:07:22.017Z,27.08
2022-10-17T10:08:29.296Z,25.83
2022-10-17T10:09:36.867Z,27.33
2022-10-17T10:10:43.286Z,24.88
2022-10-17T10:11:48.859Z,23.35
2022-10-17T10:13:05.906Z,23.00
2022-10-17T10:14:14.038Z,25.25
2022-10-17T10:15:34.581Z,26.58
2022-10-17T10:16:44.098Z,21.35
2022-10-17T10:17:46.005Z,23.88
2022-10-17T10:18:50.986Z,19.75
2022-10-17T10:19:53.822Z,23.27
2022-10-17T10:21:07.171Z,21.17
2022-10-17T10:22:17.538Z,24.73
2022-10-17T10:23:22.194Z,19.63
2022-10-17T10:24:30.779Z,22.35
2022-10-17T10:25:33.608Z,18.83
2022-10-17T10:26:40.846Z,23.25
2022-10-17T10:27:46.065Z,22.00
2022-10-17T10:29:01.295Z,21.73
2022-10-17T10:30:04.901Z,30.10
2022-10-17T10:31:10.075Z,22.02
2022-10-17T10:32:19.761Z,22.75
2022-10-17T10:33:23.465Z,18.95
2022-10-17T10:34:29.389Z,22.85
2022-10-17T10:35:33.465Z,20.50
2022-10-17T10:36:48.370Z,22.30
2022-10-17T10:37:54.442Z,19.65
2022-10-17T10:39:02.384Z,22.10
2022-10-17T10:40:17.976Z,20.92
2022-10-17T10:41:19.904Z,19.15
2022-10-17T10:42:29.441Z,23.08
2022-10-17T10:43:36.275Z,17.85
2022-10-17T10:44:42.022Z,21.95
2022-10-17T10:45:48.497Z,22.10
2022-10-17T10:47:15.604Z,21.30
2022-10-17T10:48:22.646Z,16.30
2022-10-17T10:49:30.247Z,19.42
2022-10-17T10:50:40.575Z,23.80
2022-10-17T10:51:47.669Z,20.20
2022-10-17T10:52:58.681Z,18.77
2022-10-17T10:54:09.796Z,21.48
2022-10-17T10:55:22.673Z,20.65
2022-10-17T10:56:29.592Z,27.33
2022-10-17T10:57:34.981Z,21.13
2022-10-17T10:58:50.075Z,19.15
2022-10-17T10:59:58.320Z,19.30
2022-10-17T11:01:07.034Z,19.02
2022-10-17T11:02:19.364Z,16.45
2022-10-17T11:03:28.301Z,17.30
2022-10-17T11:04:39.501Z,22.25
2022-10-17T11:05:47.509Z,18.63
2022-10-17T11:06:53.178Z,24.10
2022-10-17T11:08:07.826Z,18.05
2022-10-17T11:09:30.067Z,26.02
2022-10-17T11:10:42.686Z,24.17
2022-10-17T11:11:49.550Z,29.73
2022-10-17T11:12:57.757Z,24.77
2022-10-17T11:14:09.640Z,22.45
2022-10-17T11:15:25.239Z,21.98
2022-10-17T11:16:35.127Z,17.33
2022-10-17T11:17:44.198Z,22.05
2022-10-17T11:18:50.041Z,17.23
2022-10-17T11:20:03.554Z,19.40
2022-10-17T11:21:14.400Z,15.55
2022-10-17T11:22:23.976Z,17.35
2022-10-17T11:23:35.995Z,17.23
2022-10-17T11:24:45.677Z,15.63
2022-10-17T11:25:51.219Z,18.48
2022-10-17T11:26:58.869Z,17.70
2022-10-17T11:28:04.916Z,20.23
2022-10-17T11:29:09.039Z,19.42
2022-10-17T11:30:14.987Z,18.58
2022-10-17T11:31:19.276Z,18.10
2022-10-17T11:33:57.979Z,20.83
2022-10-17T11:35:05.022Z,21.13
2022-10-17T11:36:10.853Z,21.73
2022-10-17T11:37:18.620Z,19.50
2022-10-17T11:38:26.629Z,21.73
2022-10-17T11:39:37.136Z,17.27
2022-10-17T11:40:44.975Z,16.02
2022-10-17T11:41:51.929Z,16.63
2022-10-17T11:43:01.013Z,23.40
2022-10-17T11:44:14.608Z,21.90
2022-10-17T11:45:21.352Z,21.30
2022-10-17T11:46:25.154Z,18.48
2022-10-17T11:47:35.442Z,20.40
2022-10-17T11:48:42.477Z,15.32
2022-10-17T11:49:51.496Z,14.32
2022-10-17T11:52:56.692Z,13.93
2022-10-17T11:54:05.297Z,19.17
2022-10-17T11:55:15.426Z,17.10
2022-10-17T11:56:23.481Z,15.82
2022-10-17T11:57:51.172Z,13.57
2022-10-17T11:59:02.594Z,14.85
2022-10-17T12:00:21.011Z,15.50
2022-10-17T12:01:33.740Z,18.30
2022-10-17T12:02:44.326Z,16.67
2022-10-17T12:04:04.342Z,16.33
2022-10-17T12:05:20.877Z,13.98
2022-10-17T12:06:38.747Z,12.95
2022-10-17T12:07:50.098Z,12.98
2022-10-17T12:09:01.121Z,13.85
2022-10-17T12:10:18.909Z,11.73
2022-10-17T12:11:41.382Z,17.33
2022-10-17T12:12:43.551Z,13.43
2022-10-17T12:13:52.686Z,14.48
2022-10-17T12:14:56.080Z,13.30
2022-10-17T12:16:08.846Z,12.40
2022-10-17T12:17:34.705Z,11.48
2022-10-17T12:18:37.663Z,13.82
2022-10-17T12:19:40.623Z,11.43
2022-10-17T12:20:43.552Z,11.93
2022-10-17T12:21:56.750Z,11.25
2022-10-17T12:23:07.437Z,12.15
2022-10-17T12:24:35.749Z,12.13
2022-10-17T12:25:48.939Z,11.07
2022-10-17T12:26:55.151Z,13.85
2022-10-17T12:28:14.257Z,12.80
2022-10-17T12:29:28.469Z,14.25
2022-10-17T12:30:30.543Z,15.15
2022-10-17T12:31:34.359Z,12.70
2022-10-17T12:33:00.320Z,11.82
2022-10-17T12:34:02.053Z,13.65
2022-10-17T12:35:04.645Z,14.10
2022-10-17T12:36:42.106Z,13.00
2022-10-17T12:38:23.523Z,11.45
2022-10-17T12:39:43.425Z,11.65
2022-10-17T12:40:52.655Z,12.27
2022-10-17T12:41:57.974Z,14.13
2022-10-17T12:42:59.883Z,12.50
2022-10-17T12:44:02.834Z,14.73
2022-10-17T12:45:44.689Z,10.60
2022-10-17T12:46:51.090Z,13.30
2022-10-17T12:47:53.315Z,11.30
2022-10-17T12:49:05.454Z,11.98
2022-10-17T12:50:49.718Z,11.60
2022-10-17T12:52:29.586Z,11.27
2022-10-17T12:53:41.722Z,10.18
2022-10-17T12:55:00.389Z,10.60
2022-10-17T12:56:11.193Z,10.52
2022-10-17T12:57:22.168Z,11.98
2022-10-17T12:58:25.074Z,10.77
2022-10-17T12:59:29.728Z,14.93
2022-10-17T13:00:36.625Z,10.40
2022-10-17T13:01:39.972Z,11.73
2022-10-17T13:02:43.346Z,9.48
2022-10-17T13:03:47.581Z,13.63
2022-10-17T13:04:55.034Z,9.48
2022-10-17T13:06:00.993Z,11.68
2022-10-17T13:07:04.926Z,15.20
2022-10-17T13:08:16.231Z,12.93
2022-10-17T13:09:26.252Z,8.50
2022-10-17T13:10:31.907Z,8.68
2022-10-17T13:11:37.598Z,9.00
2022-10-17T13:12:41.998Z,9.88
2022-10-17T13:13:48.754Z,16.73
2022-10-17T13:14:52.711Z,9.77
2022-10-17T13:15:56.218Z,9.90
2022-10-17T13:17:01.148Z,8.77
2022-10-17T13:18:05.039Z,10.30
2022-10-17T13:19:15.152Z,12.48
2022-10-17T13:20:27.487Z,10.05
2022-10-17T13:21:33.404Z,15.30
2022-10-17T13:22:44.554Z,11.90
2022-10-17T13:23:50.631Z,12.10
2022-10-17T13:25:06.358Z,8.70
2022-10-17T13:26:15.251Z,9.10
2022-10-17T13:27:27.919Z,11.13
2022-10-17T13:28:34.805Z,8.70
2022-10-17T13:29:44.789Z,10.63
2022-10-17T13:30:49.779Z,10.85
2022-10-17T13:31:54.791Z,7.70
2022-10-17T13:32:57.400Z,10.20
2022-10-17T13:34:02.978Z,8.90
2022-10-17T13:35:07.067Z,7.97
2022-10-17T13:36:16.314Z,8.32
2022-10-17T13:37:18.985Z,8.07
2022-10-17T13:38:27.284Z,9.90
2022-10-17T13:39:52.798Z,9.70
2022-10-17T13:41:10.779Z,8.07
2022-10-17T13:42:24.046Z,9.48
2022-10-17T13:43:27.082Z,11.95
2022-10-17T13:44:34.393Z,6.47
2022-10-17T13:45:39.362Z,12.13
2022-10-17T13:46:42.998Z,7.53
2022-10-17T13:47:46.896Z,10.98
2022-10-17T13:48:49.553Z,8.05
2022-10-17T13:49:55.452Z,6.90
2022-10-17T13:51:02.965Z,6.80
2022-10-17T13:52:07.596Z,8.00
2022-10-17T13:53:19.674Z,7.05
2022-10-17T13:54:39.998Z,8.60
2022-10-17T13:56:09.383Z,7.15
2022-10-17T13:57:21.423Z,11.73
2022-10-17T13:58:24.192Z,7.47
2022-10-17T13:59:30.966Z,8.40
2022-10-17T14:00:35.352Z,10.30
2022-10-17T14:01:38.323Z,7.20
2022-10-17T14:02:42.300Z,9.57
2022-10-17T14:03:48.757Z,8.35
2022-10-17T14:05:18.344Z,9.00
2022-10-17T14:06:23.262Z,7.00
2022-10-17T14:08:05.631Z,7.15
2022-10-17T14:09:02.718Z,7.22
2022-10-17T14:10:06.475Z,7.30
2022-10-17T14:11:20.554Z,11.00
2022-10-17T14:12:24.065Z,5.72
2022-10-17T14:13:28.707Z,8.23
2022-10-17T14:14:46.091Z,6.78
2022-10-17T14:15:59.313Z,8.30
2022-10-17T14:17:02.307Z,6.75
2022-10-17T14:18:08.040Z,7.00
2022-10-17T14:19:24.225Z,6.80
2022-10-17T14:21:54.879Z,6.65
2022-10-17T14:23:21.862Z,7.75
2022-10-17T14:24:29.726Z,6.57
2022-10-17T14:25:35.498Z,6.65
2022-10-17T14:26:48.256Z,8.00
2022-10-17T14:27:55.568Z,6.80
2022-10-17T14:29:06.953Z,8.25
2022-10-17T14:30:55.319Z,6.00
2022-10-17T14:32:03.461Z,11.50
2022-10-17T14:33:07.764Z,7.20
2022-10-17T14:34:22.958Z,5.38
2022-10-17T14:35:41.536Z,8.38
2022-10-17T14:36:53.216Z,7.28
2022-10-17T14:38:00.201Z,14.98
2022-10-17T14:39:03.921Z,10.82
2022-10-17T14:40:08.483Z,6.72
2022-10-17T14:42:45.807Z,8.82
2022-10-17T14:43:53.517Z,9.88
2022-10-17T14:45:06.381Z,7.00
2022-10-17T14:46:15.686Z,10.48
2022-10-17T14:47:42.073Z,6.90
2022-10-17T14:48:47.610Z,6.63
2022-10-17T14:49:51.677Z,7.05
2022-10-17T14:51:11.724Z,6.75
2022-10-17T14:52:29.665Z,9.18